Aeroporto :
LOGIN :

Iscrizione | Disclaimer

   EN    FR    IT 

 










Sommario :    VFR   VFR Marginale   IFR   IFR Intensivo   IFR Molto Intensivo
Visibilità : 
Base nubi : 
>= 8 km
>= 3000ft
5 / 8 km
1000 / 3000 ft
1500m / 5 km
500 / 1000 ft
800 / 1500m
200 / 500 ft
< 800m
< 200 ft
Simboli :   Temporali  Nebbia  Neve Forte  Precipitazioni Forti  Vento > 20 kt
SIGMETs :   Varie  Temporali  Ghiacco  Turbolenza  Onda orograficha  Ceneri Vulcaniche






- Altitudine del aeroporto : 235 ft
- Codice IATA : BZG


EPBY - Bydgoszcz

ULTIMO METAR :
  • 300600Z 27006KT CAVOK M02/M07 Q1024

METARs OBSOLETI :
  • 300530Z 24003KT CAVOK M04/M08 Q1024
  • 300500Z 24003KT CAVOK M05/M09 Q1024
  • 300430Z 25003KT 220V290 CAVOK M04/M08 Q1024
  • 300400Z 30005KT CAVOK M05/M08 Q1024
  • 300330Z 30005KT CAVOK M04/M08 Q1024

TAF TAF EPBY
Valido dal 30 a 06 ore il 31 a 06 ore UTC


300530Z 3006/3106 27010KT CAVOK
BECMG 3010/3012 BKN025
TEMPO 3017/3024 5000 -SHSNRA BKN014CB
PROB30
TEMPO 3017/3024 2000 SHSN BKN004 BKN010CB
BECMG 3020/3022 35010KT



MetMap, La meteo Aeronautica in un colpo d'occhio ! - Copyright ORBIFLY Dicembre 2007 - Disclaimer

ORBIFLY MET'MAP TEAM :

Programmazione e sviluppo : Alexandra Zaïnal
Concezione : Baudouin d'Aumeries
Aiuto per la programmazione : Marc-Olivier Méhu
Supporto tecnico e logistico : Manuel Goepfert
Aiuto per la traduzione : Arnaldo La Scala

Contatto : metmap@orbifly.com




FONTI E CREDITI :

   NOAA